Pittsburgh, PA (15238)

8:37 AM EDT on August 04, 2015 (GMT -0400)
Dorseyville Middle School | | Change Station
CLOSE
Current Station
Personal Weather Station
Location: Pittsburgh, PA
Elevation: 1021 ft
Nearby Weather Stations

Elev 1021 ft 40.58 °N, 79.88 °W | Updated 4 seconds ago

Clear
Clear
66.4 °F
Feels Like 66.4 °F
N
2.0
Wind Variable Wind from West
Gusts 7.0 mph

Today
High -- | Low -- °F
--% Chance of Precip.
Yesterday
High -- | Low -- °F
Precip. -- in
6:19 AM 8:31 PM
Waning Gibbous, 78% visible
Pressure 29.97 in
Visibility 10.0 miles
Clouds Clear
Dew Point 63 °F
Humidity 89%
Rainfall 0.00 in
Snow Depth Not available.
UV 1 out of 12
Pollen 7.00 out of 12
Air Quality Not available.
Flu Activity Not available.
METAR KAGC 041153Z AUTO 25008KT 10SM CLR 18/14 A2997 RMK AO2 SLP147 7//// T01830139 10189 20172 51019 TSNO

More Conditions Fewer Conditions

Pressure 29.97 in
Visibility 10.0 miles
Clouds Clear
Dew Point 63 °F
Humidity 89%
Rainfall 0.00 in
Snow Depth Not available.
UV 1 out of 12
Pollen 7.00 out of 12
Air Quality Not available.
Flu Activity Not available.
METAR KAGC 041153Z AUTO 25008KT 10SM CLR 18/14 A2997 RMK AO2 SLP147 7//// T01830139 10189 20172 51019 TSNO

More Conditions Fewer Conditions

10-Day Weather Forecast

×

Almanac

Astronomy

Aug. 04, 2015 Rise Set
Actual Time
Civil Twilight
Nautical Twilight
Astronomical Twilight
Moon
Length of Visible Light
Length of Day
Tomorrow will be .
, % of the Moon is Illuminated

Today's Extremes

State Highs State Lows

Community

WunderPhotos

Upload Photos

1,843,911 photos uploaded!

WunderBlogs® & News

Nearby

Air Quality

  Air Quality AQ Index Pollutant
Not available.

Snow Depth

Station Depth Elevation

Earthquake Activity

City Distance Mag. Time & Date
Minimum magnitude displayed is 2.5.

Coastal Water Temperatures

Place Temperature

Stations

Nearby Weather Stations

Station Location Temp. Windchill Dew Point Humidity Wind Precip. Elev Updated Type